createdAt,value
2022-09-21T00:03:02.233Z,25.80
2022-09-21T00:08:06.856Z,26.90
2022-09-21T00:13:08.900Z,23.20
2022-09-21T00:18:14.677Z,22.20
2022-09-21T00:23:16.705Z,26.40
2022-09-21T00:28:18.439Z,24.70
2022-09-21T00:33:20.169Z,21.00
2022-09-21T00:38:22.200Z,23.40
2022-09-21T00:43:23.979Z,26.10
2022-09-21T00:48:25.760Z,21.00
2022-09-21T00:53:28.457Z,22.40
2022-09-21T00:58:34.041Z,24.50
2022-09-21T01:03:35.837Z,25.40
2022-09-21T01:08:38.426Z,25.00
2022-09-21T01:14:13.962Z,26.70
2022-09-21T01:19:50.127Z,26.00
2022-09-21T01:25:10.207Z,27.60
2022-09-21T01:30:18.950Z,25.10
2022-09-21T01:35:33.139Z,30.50
2022-09-21T01:40:39.862Z,21.60
2022-09-21T01:45:49.113Z,27.30
2022-09-21T01:50:55.624Z,27.10
2022-09-21T01:56:03.189Z,28.90
2022-09-21T02:01:14.132Z,28.20
2022-09-21T02:06:18.780Z,31.60
2022-09-21T02:11:20.732Z,29.80
2022-09-21T02:16:44.465Z,29.90
2022-09-21T02:22:06.059Z,27.20
2022-09-21T02:27:35.398Z,30.00
2022-09-21T02:32:54.521Z,29.30
2022-09-21T02:38:36.906Z,27.20
2022-09-21T02:43:47.417Z,26.20
2022-09-21T02:48:53.892Z,25.00
2022-09-21T02:53:57.081Z,26.20
2022-09-21T02:59:04.625Z,28.60
2022-09-21T03:04:06.864Z,27.20
2022-09-21T03:09:08.993Z,26.60
2022-09-21T03:14:10.864Z,29.60
2022-09-21T03:19:12.783Z,30.20
2022-09-21T03:24:34.742Z,28.80
2022-09-21T03:29:43.587Z,31.00
2022-09-21T03:34:51.912Z,27.10
2022-09-21T03:40:08.048Z,29.20
2022-09-21T03:45:11.815Z,30.50
2022-09-21T03:50:14.839Z,28.70
2022-09-21T03:55:17.340Z,32.70
2022-09-21T04:00:20.390Z,33.30
2022-09-21T04:05:29.289Z,28.90
2022-09-21T04:10:33.408Z,27.40
2022-09-21T04:15:36.876Z,34.30
2022-09-21T04:20:38.816Z,31.80
2022-09-21T04:25:46.588Z,35.70
2022-09-21T04:30:48.411Z,35.60
2022-09-21T04:35:57.005Z,37.20
2022-09-21T04:40:59.107Z,38.90
2022-09-21T04:46:09.632Z,40.80
2022-09-21T04:51:12.782Z,39.20
2022-09-21T04:56:16.619Z,39.90
2022-09-21T05:01:18.591Z,38.10
2022-09-21T05:06:20.786Z,38.80
2022-09-21T05:11:22.943Z,48.30
2022-09-21T05:16:24.701Z,43.00
2022-09-21T05:21:26.777Z,44.50
2022-09-21T05:26:28.596Z,41.20
2022-09-21T05:31:56.076Z,42.40
2022-09-21T05:37:10.260Z,44.20
2022-09-21T05:42:19.988Z,39.40
2022-09-21T05:47:39.700Z,41.90
2022-09-21T05:53:20.386Z,44.40
2022-09-21T05:58:48.308Z,48.00
2022-09-21T06:03:50.353Z,40.50
2022-09-21T06:08:52.288Z,37.80
2022-09-21T06:13:54.681Z,34.60
2022-09-21T06:18:56.691Z,38.00
2022-09-21T06:24:05.917Z,33.60
2022-09-21T06:29:23.453Z,41.00
2022-09-21T06:34:25.276Z,43.60
2022-09-21T06:39:27.282Z,35.70
2022-09-21T06:44:30.162Z,34.20
2022-09-21T06:49:31.953Z,39.50
2022-09-21T06:54:33.724Z,37.10
2022-09-21T06:59:37.736Z,34.30
2022-09-21T07:04:39.956Z,31.10
2022-09-21T07:15:07.181Z,32.10
2022-09-21T07:20:09.173Z,33.40
2022-09-21T07:25:11.793Z,30.10
2022-09-21T07:30:13.672Z,32.10
2022-09-21T07:35:15.390Z,30.30
2022-09-21T07:40:36.911Z,39.30
2022-09-21T07:45:57.430Z,29.60
2022-09-21T07:51:06.745Z,30.70
2022-09-21T07:56:11.686Z,28.70
2022-09-21T08:06:32.951Z,31.10
2022-09-21T08:11:54.889Z,28.70
2022-09-21T08:16:56.622Z,24.80
2022-09-21T08:21:58.979Z,27.70
2022-09-21T08:27:01.675Z,27.30
2022-09-21T08:32:04.210Z,24.70
2022-09-21T08:37:06.734Z,18.00
2022-09-21T08:42:08.512Z,18.90
2022-09-21T08:47:35.662Z,21.00
2022-09-21T08:52:37.748Z,18.70
2022-09-21T08:57:39.663Z,18.80
2022-09-21T09:02:56.587Z,20.30
2022-09-21T09:08:26.424Z,21.70
2022-09-21T09:13:57.044Z,21.00
2022-09-21T09:19:15.844Z,20.70
2022-09-21T09:24:33.705Z,18.60
2022-09-21T09:29:53.022Z,19.60
2022-09-21T09:35:25.903Z,21.80
2022-09-21T09:40:47.366Z,21.30
2022-09-21T09:46:21.953Z,18.60
2022-09-21T09:51:40.749Z,16.20
2022-09-21T09:56:43.270Z,16.50
2022-09-21T10:01:47.330Z,15.50
2022-09-21T10:06:49.471Z,14.50
2022-09-21T10:11:53.149Z,9.10
2022-09-21T10:16:56.341Z,9.30
2022-09-21T10:22:00.974Z,11.70
2022-09-21T10:27:40.991Z,11.30
2022-09-21T10:32:56.961Z,7.80
2022-09-21T10:38:27.438Z,8.60
2022-09-21T10:43:43.693Z,10.10
2022-09-21T10:48:46.651Z,12.00
2022-09-21T10:53:53.896Z,6.80
2022-09-21T10:59:22.366Z,10.40
2022-09-21T11:04:40.979Z,15.00
2022-09-21T11:09:58.742Z,10.20
2022-09-21T11:20:34.927Z,7.90
2022-09-21T11:26:01.149Z,6.50
2022-09-21T11:31:37.159Z,9.00
2022-09-21T11:37:10.974Z,7.40
2022-09-21T11:42:36.093Z,6.50
2022-09-21T11:47:49.728Z,6.20
2022-09-21T11:53:11.230Z,4.60
2022-09-21T11:58:31.573Z,11.70
2022-09-21T12:04:11.139Z,8.60
2022-09-21T12:09:34.363Z,5.70
2022-09-21T12:14:50.298Z,5.10
2022-09-21T12:20:20.975Z,6.90
2022-09-21T12:25:29.685Z,3.70
2022-09-21T12:30:33.679Z,3.40
2022-09-21T12:35:44.434Z,7.40
2022-09-21T12:40:54.474Z,7.30
2022-09-21T12:46:29.586Z,5.90
2022-09-21T12:51:36.974Z,7.90
2022-09-21T12:56:51.595Z,5.60
2022-09-21T13:02:12.433Z,6.00
2022-09-21T13:07:34.011Z,6.70
2022-09-21T13:12:57.441Z,5.60
2022-09-21T13:18:05.897Z,6.10
2022-09-21T13:23:17.405Z,5.10
2022-09-21T13:28:21.639Z,4.60
2022-09-21T13:33:23.927Z,4.90
2022-09-21T13:38:41.199Z,6.80
2022-09-21T13:44:05.878Z,5.70
2022-09-21T13:49:11.414Z,5.40
2022-09-21T13:54:14.445Z,4.10
2022-09-21T13:59:24.558Z,6.00
2022-09-21T14:04:37.215Z,4.30
2022-09-21T14:09:57.831Z,5.40
2022-09-21T14:15:22.772Z,5.50
2022-09-21T14:20:37.154Z,7.10
2022-09-21T14:25:49.015Z,2.80
2022-09-21T14:30:58.264Z,2.70
2022-09-21T14:36:05.625Z,3.90
2022-09-21T14:46:12.751Z,6.90
2022-09-21T14:51:25.225Z,11.20
2022-09-21T14:56:56.771Z,10.70
2022-09-21T15:02:29.193Z,10.50
2022-09-21T15:07:54.809Z,9.70
2022-09-21T15:13:19.189Z,8.10
2022-09-21T15:18:22.519Z,8.80
2022-09-21T15:23:25.277Z,6.80
2022-09-21T15:28:57.936Z,11.10
2022-09-21T15:33:57.311Z,11.40
2022-09-21T15:39:01.651Z,15.10
2022-09-21T15:44:21.529Z,15.40
2022-09-21T15:49:23.968Z,12.80
2022-09-21T15:54:35.819Z,13.70
2022-09-21T15:59:55.949Z,17.00
2022-09-21T16:04:57.949Z,17.60
2022-09-21T16:10:01.015Z,12.60
2022-09-21T16:15:25.353Z,9.10
2022-09-21T16:20:42.935Z,10.10
2022-09-21T16:25:52.717Z,10.40
2022-09-21T16:30:56.693Z,20.00
2022-09-21T16:35:59.062Z,14.90
2022-09-21T16:41:02.676Z,16.80
2022-09-21T16:46:06.093Z,17.40
2022-09-21T16:51:17.911Z,19.80
2022-09-21T16:56:20.295Z,26.30
2022-09-21T17:01:22.190Z,21.80
2022-09-21T17:06:24.146Z,26.00
2022-09-21T17:11:26.122Z,25.80
2022-09-21T17:16:28.008Z,28.70
2022-09-21T17:21:31.399Z,27.50
2022-09-21T17:26:34.728Z,41.10
2022-09-21T17:31:38.847Z,42.80
2022-09-21T17:36:40.970Z,31.40
2022-09-21T17:41:57.889Z,30.30
2022-09-21T17:47:17.881Z,41.00
2022-09-21T17:52:41.260Z,33.90
2022-09-21T17:58:20.641Z,23.70
2022-09-21T18:03:26.365Z,29.20
2022-09-21T18:08:36.120Z,31.80
2022-09-21T18:13:54.199Z,35.20
2022-09-21T18:19:26.083Z,30.20
2022-09-21T18:24:33.900Z,34.90
2022-09-21T18:34:57.936Z,30.40
2022-09-21T18:40:36.947Z,32.30
2022-09-21T18:45:55.609Z,37.70
2022-09-21T18:51:04.886Z,35.60
2022-09-21T18:56:08.521Z,34.80
2022-09-21T19:01:13.086Z,35.10
2022-09-21T19:06:52.927Z,30.90
2022-09-21T19:12:05.326Z,36.80
2022-09-21T19:17:25.964Z,30.10
2022-09-21T19:22:53.236Z,35.50
2022-09-21T19:28:01.575Z,34.80
2022-09-21T19:33:48.344Z,37.30
2022-09-21T19:38:48.112Z,42.30
2022-09-21T19:44:12.958Z,33.70
2022-09-21T19:49:20.070Z,32.40
2022-09-21T19:54:43.422Z,32.70
2022-09-21T19:59:46.013Z,36.50
2022-09-21T20:05:20.276Z,29.30
2022-09-21T20:10:28.066Z,31.10
2022-09-21T20:15:48.251Z,33.60
2022-09-21T20:20:50.253Z,28.90
2022-09-21T20:26:03.511Z,32.20
2022-09-21T20:31:05.309Z,33.20
2022-09-21T20:36:09.327Z,29.50
2022-09-21T20:41:16.624Z,30.20
2022-09-21T20:46:19.106Z,30.60
2022-09-21T20:51:21.378Z,31.70
2022-09-21T20:56:24.373Z,30.00
2022-09-21T21:01:27.007Z,28.40
2022-09-21T21:06:31.338Z,27.90
2022-09-21T21:11:33.102Z,33.00
2022-09-21T21:16:34.953Z,30.60
2022-09-21T21:21:36.906Z,37.40
2022-09-21T21:27:00.625Z,31.40
2022-09-21T21:32:14.830Z,32.10
2022-09-21T21:37:18.619Z,36.70
2022-09-21T21:42:21.088Z,38.30
2022-09-21T21:47:40.526Z,33.90
2022-09-21T21:52:45.219Z,31.20
2022-09-21T21:57:47.079Z,34.20
2022-09-21T22:02:48.852Z,32.10
2022-09-21T22:07:50.756Z,35.90
2022-09-21T22:12:52.754Z,43.90
2022-09-21T22:17:54.421Z,43.80
2022-09-21T22:22:56.164Z,44.80
2022-09-21T22:27:58.493Z,41.80
2022-09-21T22:33:00.476Z,42.80
2022-09-21T22:38:02.275Z,32.80
2022-09-21T22:43:04.029Z,34.90
2022-09-21T22:48:05.818Z,41.40
2022-09-21T22:53:07.630Z,32.80
2022-09-21T22:58:10.059Z,32.10
2022-09-21T23:03:25.948Z,30.40
2022-09-21T23:08:28.872Z,30.80
2022-09-21T23:13:30.601Z,35.10
2022-09-21T23:18:37.166Z,34.90
2022-09-21T23:23:39.652Z,40.40
2022-09-21T23:28:53.851Z,45.30
2022-09-21T23:34:02.814Z,41.10
2022-09-21T23:39:07.264Z,36.80
2022-09-21T23:44:09.519Z,34.70
2022-09-21T23:49:11.485Z,31.70
2022-09-21T23:54:15.158Z,36.30
2022-09-21T23:59:16.857Z,35.00
